sensor_id;sensor_type;location;lat;lon;timestamp;temperature;humidity
29321;DHT22;16323;51.130;6.612;2023-04-08T15:37:11;17.40;60.50
29321;DHT22;16323;51.130;6.612;2023-04-08T15:39:38;17.40;60.50
29321;DHT22;16323;51.130;6.612;2023-04-08T15:42:06;17.50;61.90
29321;DHT22;16323;51.130;6.612;2023-04-08T15:44:33;17.60;61.40
29321;DHT22;16323;51.130;6.612;2023-04-08T15:47:00;17.70;61.80
29321;DHT22;16323;51.130;6.612;2023-04-08T15:49:27;17.70;61.40
29321;DHT22;16323;51.130;6.612;2023-04-08T15:51:53;17.70;61.10
29321;DHT22;16323;51.130;6.612;2023-04-08T15:54:22;17.60;61.00
29321;DHT22;16323;51.130;6.612;2023-04-08T15:56:49;17.60;61.10
29321;DHT22;16323;51.130;6.612;2023-04-08T15:59:16;17.50;61.10
29321;DHT22;16323;51.130;6.612;2023-04-08T16:01:43;17.50;61.20
29321;DHT22;16323;51.130;6.612;2023-04-08T16:04:10;17.50;61.20
29321;DHT22;16323;51.130;6.612;2023-04-08T16:17:28;17.50;61.00
29321;DHT22;16323;51.130;6.612;2023-04-08T16:19:55;17.50;60.90
29321;DHT22;16323;51.130;6.612;2023-04-08T16:22:23;17.50;61.10
29321;DHT22;16323;51.130;6.612;2023-04-08T16:24:53;17.50;61.20
29321;DHT22;16323;51.130;6.612;2023-04-08T16:27:20;17.40;61.00
29321;DHT22;16323;51.130;6.612;2023-04-08T16:29:48;17.50;61.00
29321;DHT22;16323;51.130;6.612;2023-04-08T16:32:17;17.50;61.10
29321;DHT22;16323;51.130;6.612;2023-04-08T16:34:46;17.40;61.00
29321;DHT22;16323;51.130;6.612;2023-04-08T16:37:15;17.40;61.10
29321;DHT22;16323;51.130;6.612;2023-04-08T16:39:44;17.40;61.10
29321;DHT22;16323;51.130;6.612;2023-04-08T16:42:14;17.40;61.10
29321;DHT22;16323;51.130;6.612;2023-04-08T16:44:43;17.40;61.20
29321;DHT22;16323;51.130;6.612;2023-04-08T16:47:13;17.40;61.00
29321;DHT22;16323;51.130;6.612;2023-04-08T16:49:42;17.40;61.00
29321;DHT22;16323;51.130;6.612;2023-04-08T16:52:14;17.40;60.90
29321;DHT22;16323;51.130;6.612;2023-04-08T16:54:44;17.40;60.90
29321;DHT22;16323;51.130;6.612;2023-04-08T16:57:14;17.40;61.00
29321;DHT22;16323;51.130;6.612;2023-04-08T16:59:43;17.50;61.00
29321;DHT22;16323;51.130;6.612;2023-04-08T17:02:12;17.50;61.20
29321;DHT22;16323;51.130;6.612;2023-04-08T17:04:41;17.50;61.20
29321;DHT22;16323;51.130;6.612;2023-04-08T17:07:09;17.60;61.40
29321;DHT22;16323;51.130;6.612;2023-04-08T17:09:39;17.50;61.40
29321;DHT22;16323;51.130;6.612;2023-04-08T17:12:08;17.50;61.40
29321;DHT22;16323;51.130;6.612;2023-04-08T17:14:36;17.50;61.50
29321;DHT22;16323;51.130;6.612;2023-04-08T17:17:05;17.50;61.60
29321;DHT22;16323;51.130;6.612;2023-04-08T17:19:33;17.50;61.70
29321;DHT22;16323;51.130;6.612;2023-04-08T17:22:03;17.40;61.70
29321;DHT22;16323;51.130;6.612;2023-04-08T17:24:32;17.40;61.70
29321;DHT22;16323;51.130;6.612;2023-04-08T17:27:04;17.40;61.90
29321;DHT22;16323;51.130;6.612;2023-04-08T17:29:33;17.40;61.80
29321;DHT22;16323;51.130;6.612;2023-04-08T17:32:02;17.40;61.80
29321;DHT22;16323;51.130;6.612;2023-04-08T17:34:31;17.40;61.80
29321;DHT22;16323;51.130;6.612;2023-04-08T17:37:00;17.40;61.80
29321;DHT22;16323;51.130;6.612;2023-04-08T17:39:27;17.50;62.00
29321;DHT22;16323;51.130;6.612;2023-04-08T17:41:55;17.40;61.90
29321;DHT22;16323;51.130;6.612;2023-04-08T17:44:24;17.40;61.90
29321;DHT22;16323;51.130;6.612;2023-04-08T17:46:54;17.40;62.00
29321;DHT22;16323;51.130;6.612;2023-04-08T17:49:21;17.40;62.00
29321;DHT22;16323;51.130;6.612;2023-04-08T17:51:48;17.40;61.90
29321;DHT22;16323;51.130;6.612;2023-04-08T17:54:15;17.40;61.70
29321;DHT22;16323;51.130;6.612;2023-04-08T17:56:42;17.40;61.80
29321;DHT22;16323;51.130;6.612;2023-04-08T17:59:09;17.40;61.70
29321;DHT22;16323;51.130;6.612;2023-04-08T18:01:37;17.40;61.70
29321;DHT22;16323;51.130;6.612;2023-04-08T18:04:04;17.50;64.80
29321;DHT22;16323;51.130;6.612;2023-04-08T18:06:32;17.50;69.00
29321;DHT22;16323;51.130;6.612;2023-04-08T18:08:59;17.50;70.20
29321;DHT22;16323;51.130;6.612;2023-04-08T18:11:28;17.40;68.30
29321;DHT22;16323;51.130;6.612;2023-04-08T18:13:54;17.40;67.40
29321;DHT22;16323;51.130;6.612;2023-04-08T18:16:21;17.30;67.10
29321;DHT22;16323;51.130;6.612;2023-04-08T18:18:50;17.30;68.20
29321;DHT22;16323;51.130;6.612;2023-04-08T18:21:16;17.30;68.90
29321;DHT22;16323;51.130;6.612;2023-04-08T18:23:43;17.30;69.50
29321;DHT22;16323;51.130;6.612;2023-04-08T18:26:11;17.20;69.80
29321;DHT22;16323;51.130;6.612;2023-04-08T18:28:38;17.20;69.80
29321;DHT22;16323;51.130;6.612;2023-04-08T18:31:05;17.20;70.40
29321;DHT22;16323;51.130;6.612;2023-04-08T18:33:32;17.20;70.60
29321;DHT22;16323;51.130;6.612;2023-04-08T18:36:06;17.20;71.10
29321;DHT22;16323;51.130;6.612;2023-04-08T18:38:33;17.20;70.80
29321;DHT22;16323;51.130;6.612;2023-04-08T18:41:00;17.20;71.10
29321;DHT22;16323;51.130;6.612;2023-04-08T18:43:27;17.20;71.40
29321;DHT22;16323;51.130;6.612;2023-04-08T18:45:54;17.20;71.70
29321;DHT22;16323;51.130;6.612;2023-04-08T18:48:21;17.20;71.90
29321;DHT22;16323;51.130;6.612;2023-04-08T18:50:47;17.20;72.10
29321;DHT22;16323;51.130;6.612;2023-04-08T18:53:16;17.20;72.20
29321;DHT22;16323;51.130;6.612;2023-04-08T18:55:43;17.20;73.50
29321;DHT22;16323;51.130;6.612;2023-04-08T18:58:10;17.20;72.60
29321;DHT22;16323;51.130;6.612;2023-04-08T19:00:37;17.20;73.00
29321;DHT22;16323;51.130;6.612;2023-04-08T19:03:05;17.20;73.10
29321;DHT22;16323;51.130;6.612;2023-04-08T19:05:32;17.20;73.20
29321;DHT22;16323;51.130;6.612;2023-04-08T19:08:01;17.20;73.40
29321;DHT22;16323;51.130;6.612;2023-04-08T19:10:30;17.20;73.50
29321;DHT22;16323;51.130;6.612;2023-04-08T19:12:57;17.20;73.40
29321;DHT22;16323;51.130;6.612;2023-04-08T19:15:24;17.20;73.50
29321;DHT22;16323;51.130;6.612;2023-04-08T19:17:51;17.20;73.60
29321;DHT22;16323;51.130;6.612;2023-04-08T19:20:18;17.20;73.90
29321;DHT22;16323;51.130;6.612;2023-04-08T19:22:45;17.20;74.20
29321;DHT22;16323;51.130;6.612;2023-04-08T19:25:14;17.20;74.30
29321;DHT22;16323;51.130;6.612;2023-04-08T19:27:42;17.20;74.50
29321;DHT22;16323;51.130;6.612;2023-04-08T19:30:10;17.20;75.00
29321;DHT22;16323;51.130;6.612;2023-04-08T19:32:37;17.20;74.90
29321;DHT22;16323;51.130;6.612;2023-04-08T19:35:05;17.20;75.00
29321;DHT22;16323;51.130;6.612;2023-04-08T19:37:32;17.20;75.90
29321;DHT22;16323;51.130;6.612;2023-04-08T19:39:59;17.20;75.40
29321;DHT22;16323;51.130;6.612;2023-04-08T19:42:25;17.20;75.40
29321;DHT22;16323;51.130;6.612;2023-04-08T19:44:54;17.20;75.80
29321;DHT22;16323;51.130;6.612;2023-04-08T19:47:21;17.20;75.80
29321;DHT22;16323;51.130;6.612;2023-04-08T19:49:47;17.20;75.80
29321;DHT22;16323;51.130;6.612;2023-04-08T19:52:14;17.20;75.80
29321;DHT22;16323;51.130;6.612;2023-04-08T19:54:41;17.20;76.80
29321;DHT22;16323;51.130;6.612;2023-04-08T19:57:08;17.20;75.70
29321;DHT22;16323;51.130;6.612;2023-04-08T19:59:36;17.20;76.80
29321;DHT22;16323;51.130;6.612;2023-04-08T20:02:04;17.20;75.80
29321;DHT22;16323;51.130;6.612;2023-04-08T20:04:30;17.20;75.80
29321;DHT22;16323;51.130;6.612;2023-04-08T20:06:57;17.20;75.80
29321;DHT22;16323;51.130;6.612;2023-04-08T20:09:26;17.20;75.80
29321;DHT22;16323;51.130;6.612;2023-04-08T20:11:53;17.20;75.80
29321;DHT22;16323;51.130;6.612;2023-04-08T20:14:20;17.20;75.80
29321;DHT22;16323;51.130;6.612;2023-04-08T20:16:47;17.20;75.80
29321;DHT22;16323;51.130;6.612;2023-04-08T20:19:15;17.20;75.80
29321;DHT22;16323;51.130;6.612;2023-04-08T20:21:42;17.20;75.80
29321;DHT22;16323;51.130;6.612;2023-04-08T20:24:09;17.20;75.80
29321;DHT22;16323;51.130;6.612;2023-04-08T20:26:36;17.20;75.80
29321;DHT22;16323;51.130;6.612;2023-04-08T20:29:02;17.20;76.60
29321;DHT22;16323;51.130;6.612;2023-04-08T20:31:29;17.10;77.10
29321;DHT22;16323;51.130;6.612;2023-04-08T20:33:57;17.10;77.30
29321;DHT22;16323;51.130;6.612;2023-04-08T20:36:26;17.10;77.60
29321;DHT22;16323;51.130;6.612;2023-04-08T20:38:54;17.10;77.60
29321;DHT22;16323;51.130;6.612;2023-04-08T20:41:23;17.10;77.70
29321;DHT22;16323;51.130;6.612;2023-04-08T20:43:52;17.10;77.80
29321;DHT22;16323;51.130;6.612;2023-04-08T20:46:19;17.10;77.80
29321;DHT22;16323;51.130;6.612;2023-04-08T20:48:47;17.10;77.90
29321;DHT22;16323;51.130;6.612;2023-04-08T20:51:14;17.10;77.90
29321;DHT22;16323;51.130;6.612;2023-04-08T20:53:43;17.10;77.90
29321;DHT22;16323;51.130;6.612;2023-04-08T20:56:10;17.10;77.80
29321;DHT22;16323;51.130;6.612;2023-04-08T20:58:37;17.10;77.80
29321;DHT22;16323;51.130;6.612;2023-04-08T21:01:03;17.10;77.80
29321;DHT22;16323;51.130;6.612;2023-04-08T21:03:31;17.10;77.80
29321;DHT22;16323;51.130;6.612;2023-04-08T21:05:58;17.10;77.90
29321;DHT22;16323;51.130;6.612;2023-04-08T21:08:25;17.10;77.70
29321;DHT22;16323;51.130;6.612;2023-04-08T21:10:53;17.10;77.80
29321;DHT22;16323;51.130;6.612;2023-04-08T21:13:20;17.10;78.00
29321;DHT22;16323;51.130;6.612;2023-04-08T21:15:46;17.10;78.10
29321;DHT22;16323;51.130;6.612;2023-04-08T21:18:13;17.10;78.30
29321;DHT22;16323;51.130;6.612;2023-04-08T21:20:40;17.10;78.30
29321;DHT22;16323;51.130;6.612;2023-04-08T21:23:07;17.10;78.50
29321;DHT22;16323;51.130;6.612;2023-04-08T21:25:34;17.10;78.90
29321;DHT22;16323;51.130;6.612;2023-04-08T21:28:02;17.10;78.90
29321;DHT22;16323;51.130;6.612;2023-04-08T21:30:28;17.10;79.20
29321;DHT22;16323;51.130;6.612;2023-04-08T21:32:55;17.10;79.10
29321;DHT22;16323;51.130;6.612;2023-04-08T21:35:22;17.10;78.90
29321;DHT22;16323;51.130;6.612;2023-04-08T21:37:49;17.10;79.00
29321;DHT22;16323;51.130;6.612;2023-04-08T21:40:16;17.10;78.90
29321;DHT22;16323;51.130;6.612;2023-04-08T21:42:43;17.10;78.90
29321;DHT22;16323;51.130;6.612;2023-04-08T21:45:11;17.10;78.70
29321;DHT22;16323;51.130;6.612;2023-04-08T21:47:39;17.20;79.00
29321;DHT22;16323;51.130;6.612;2023-04-08T21:50:07;17.10;79.00
29321;DHT22;16323;51.130;6.612;2023-04-08T21:52:34;17.20;78.80
29321;DHT22;16323;51.130;6.612;2023-04-08T21:55:01;17.20;78.70
29321;DHT22;16323;51.130;6.612;2023-04-08T21:57:29;17.20;78.50
29321;DHT22;16323;51.130;6.612;2023-04-08T21:59:56;17.10;79.10
29321;DHT22;16323;51.130;6.612;2023-04-08T22:02:24;17.10;78.50
29321;DHT22;16323;51.130;6.612;2023-04-08T22:04:51;17.10;78.50
29321;DHT22;16323;51.130;6.612;2023-04-08T22:07:18;17.10;78.70
29321;DHT22;16323;51.130;6.612;2023-04-08T22:09:44;17.20;78.50
29321;DHT22;16323;51.130;6.612;2023-04-08T22:12:11;17.10;78.50
29321;DHT22;16323;51.130;6.612;2023-04-08T22:14:38;17.10;78.50
29321;DHT22;16323;51.130;6.612;2023-04-08T22:17:05;17.10;78.40
29321;DHT22;16323;51.130;6.612;2023-04-08T22:19:33;17.10;78.90
29321;DHT22;16323;51.130;6.612;2023-04-08T22:22:00;17.10;78.70
29321;DHT22;16323;51.130;6.612;2023-04-08T22:24:27;17.20;78.80
29321;DHT22;16323;51.130;6.612;2023-04-08T22:26:53;17.20;79.20
29321;DHT22;16323;51.130;6.612;2023-04-08T22:29:20;17.20;79.00
29321;DHT22;16323;51.130;6.612;2023-04-08T22:31:47;17.20;78.90
29321;DHT22;16323;51.130;6.612;2023-04-08T22:34:14;17.20;79.00
29321;DHT22;16323;51.130;6.612;2023-04-08T22:36:42;17.20;79.20
29321;DHT22;16323;51.130;6.612;2023-04-08T22:39:09;17.20;79.20
29321;DHT22;16323;51.130;6.612;2023-04-08T22:41:36;17.20;79.10
29321;DHT22;16323;51.130;6.612;2023-04-08T22:44:03;17.20;79.10
29321;DHT22;16323;51.130;6.612;2023-04-08T22:46:30;17.20;78.60
29321;DHT22;16323;51.130;6.612;2023-04-08T22:48:57;17.20;78.70
29321;DHT22;16323;51.130;6.612;2023-04-08T22:51:24;17.20;78.70
29321;DHT22;16323;51.130;6.612;2023-04-08T22:53:52;17.20;78.60
29321;DHT22;16323;51.130;6.612;2023-04-08T22:56:18;17.20;78.20
29321;DHT22;16323;51.130;6.612;2023-04-08T22:58:45;17.20;78.20
29321;DHT22;16323;51.130;6.612;2023-04-08T23:01:14;17.20;78.50
29321;DHT22;16323;51.130;6.612;2023-04-08T23:03:41;17.20;78.20
29321;DHT22;16323;51.130;6.612;2023-04-08T23:06:08;17.20;78.30
29321;DHT22;16323;51.130;6.612;2023-04-08T23:08:34;17.20;78.20
29321;DHT22;16323;51.130;6.612;2023-04-08T23:11:04;17.20;78.10
29321;DHT22;16323;51.130;6.612;2023-04-08T23:13:31;17.20;78.20
29321;DHT22;16323;51.130;6.612;2023-04-08T23:15:58;17.20;78.50
29321;DHT22;16323;51.130;6.612;2023-04-08T23:18:25;17.20;78.40
29321;DHT22;16323;51.130;6.612;2023-04-08T23:20:53;17.20;78.80
29321;DHT22;16323;51.130;6.612;2023-04-08T23:23:21;17.20;78.90
29321;DHT22;16323;51.130;6.612;2023-04-08T23:25:48;17.20;79.00
29321;DHT22;16323;51.130;6.612;2023-04-08T23:28:16;17.20;78.90
29321;DHT22;16323;51.130;6.612;2023-04-08T23:30:43;17.20;79.00
29321;DHT22;16323;51.130;6.612;2023-04-08T23:33:10;17.30;79.20
29321;DHT22;16323;51.130;6.612;2023-04-08T23:35:38;17.30;79.00
29321;DHT22;16323;51.130;6.612;2023-04-08T23:38:05;17.30;78.90
29321;DHT22;16323;51.130;6.612;2023-04-08T23:40:31;17.30;78.80
29321;DHT22;16323;51.130;6.612;2023-04-08T23:42:58;17.20;78.40
29321;DHT22;16323;51.130;6.612;2023-04-08T23:45:26;17.20;78.00
29321;DHT22;16323;51.130;6.612;2023-04-08T23:47:53;17.20;78.00
29321;DHT22;16323;51.130;6.612;2023-04-08T23:50:20;17.20;78.10
29321;DHT22;16323;51.130;6.612;2023-04-08T23:52:47;17.20;78.20
29321;DHT22;16323;51.130;6.612;2023-04-08T23:55:14;17.20;77.80
29321;DHT22;16323;51.130;6.612;2023-04-08T23:57:41;17.20;78.10
